sensor_id;sensor_type;location;lat;lon;timestamp;temperature;humidity
2913;DHT22;1466;48.778;9.166;2022-12-18T00:01:47;-3.00;99.10
2913;DHT22;1466;48.778;9.166;2022-12-18T00:04:31;-3.00;99.10
2913;DHT22;1466;48.778;9.166;2022-12-18T00:06:57;-3.00;99.00
2913;DHT22;1466;48.778;9.166;2022-12-18T00:09:23;-3.00;99.00
2913;DHT22;1466;48.778;9.166;2022-12-18T00:11:48;-3.10;98.80
2913;DHT22;1466;48.778;9.166;2022-12-18T00:14:14;-3.10;98.90
2913;DHT22;1466;48.778;9.166;2022-12-18T00:16:43;-3.10;98.90
2913;DHT22;1466;48.778;9.166;2022-12-18T00:19:09;-3.20;98.80
2913;DHT22;1466;48.778;9.166;2022-12-18T00:21:35;-3.20;99.00
2913;DHT22;1466;48.778;9.166;2022-12-18T00:24:01;-3.30;98.80
2913;DHT22;1466;48.778;9.166;2022-12-18T00:26:29;-3.30;98.80
2913;DHT22;1466;48.778;9.166;2022-12-18T00:28:57;-3.30;98.80
2913;DHT22;1466;48.778;9.166;2022-12-18T00:31:24;-3.30;98.80
2913;DHT22;1466;48.778;9.166;2022-12-18T00:33:50;-3.40;98.80
2913;DHT22;1466;48.778;9.166;2022-12-18T00:36:18;-3.40;98.80
2913;DHT22;1466;48.778;9.166;2022-12-18T00:38:44;-3.50;98.90
2913;DHT22;1466;48.778;9.166;2022-12-18T00:41:11;-3.50;98.90
2913;DHT22;1466;48.778;9.166;2022-12-18T00:43:38;-3.50;98.90
2913;DHT22;1466;48.778;9.166;2022-12-18T00:46:04;-3.50;98.90
2913;DHT22;1466;48.778;9.166;2022-12-18T00:48:30;-3.50;99.00
2913;DHT22;1466;48.778;9.166;2022-12-18T00:50:56;-3.50;99.00
2913;DHT22;1466;48.778;9.166;2022-12-18T00:53:22;-3.50;98.90
2913;DHT22;1466;48.778;9.166;2022-12-18T00:55:47;-3.50;98.90
2913;DHT22;1466;48.778;9.166;2022-12-18T00:58:15;-3.50;98.90
2913;DHT22;1466;48.778;9.166;2022-12-18T01:00:42;-3.50;99.00
2913;DHT22;1466;48.778;9.166;2022-12-18T01:03:09;-3.40;99.10
2913;DHT22;1466;48.778;9.166;2022-12-18T01:05:39;-3.40;99.00
2913;DHT22;1466;48.778;9.166;2022-12-18T01:08:05;-3.40;98.90
2913;DHT22;1466;48.778;9.166;2022-12-18T01:10:31;-3.40;98.90
2913;DHT22;1466;48.778;9.166;2022-12-18T01:12:56;-3.40;98.90
2913;DHT22;1466;48.778;9.166;2022-12-18T01:15:22;-3.40;99.00
2913;DHT22;1466;48.778;9.166;2022-12-18T01:17:47;-3.40;99.00
2913;DHT22;1466;48.778;9.166;2022-12-18T01:20:13;-3.40;99.00
2913;DHT22;1466;48.778;9.166;2022-12-18T01:22:39;-3.30;99.10
2913;DHT22;1466;48.778;9.166;2022-12-18T01:25:05;-3.30;99.20
2913;DHT22;1466;48.778;9.166;2022-12-18T01:27:32;-3.20;99.00
2913;DHT22;1466;48.778;9.166;2022-12-18T01:29:58;-3.10;99.00
2913;DHT22;1466;48.778;9.166;2022-12-18T01:32:23;-3.10;98.90
2913;DHT22;1466;48.778;9.166;2022-12-18T01:34:49;-3.20;98.70
2913;DHT22;1466;48.778;9.166;2022-12-18T01:37:14;-3.20;98.70
2913;DHT22;1466;48.778;9.166;2022-12-18T01:39:40;-3.30;98.80
2913;DHT22;1466;48.778;9.166;2022-12-18T01:42:12;-3.30;98.90
2913;DHT22;1466;48.778;9.166;2022-12-18T01:44:57;-3.20;99.10
2913;DHT22;1466;48.778;9.166;2022-12-18T01:47:44;-3.10;98.90
2913;DHT22;1466;48.778;9.166;2022-12-18T01:53:12;-3.20;98.80
2913;DHT22;1466;48.778;9.166;2022-12-18T01:55:47;-3.20;98.70
2913;DHT22;1466;48.778;9.166;2022-12-18T01:58:14;-3.20;98.80
2913;DHT22;1466;48.778;9.166;2022-12-18T02:00:40;-3.20;99.00
2913;DHT22;1466;48.778;9.166;2022-12-18T02:03:06;-3.10;99.00
2913;DHT22;1466;48.778;9.166;2022-12-18T02:05:45;-3.10;98.90
2913;DHT22;1466;48.778;9.166;2022-12-18T02:08:20;-3.10;98.80
2913;DHT22;1466;48.778;9.166;2022-12-18T02:13:32;-3.10;98.90
2913;DHT22;1466;48.778;9.166;2022-12-18T02:16:29;-3.10;99.20
2913;DHT22;1466;48.778;9.166;2022-12-18T02:19:01;-3.00;98.90
2913;DHT22;1466;48.778;9.166;2022-12-18T02:21:46;-3.10;98.70
2913;DHT22;1466;48.778;9.166;2022-12-18T02:24:35;-3.20;98.70
2913;DHT22;1466;48.778;9.166;2022-12-18T02:27:06;-3.30;98.60
2913;DHT22;1466;48.778;9.166;2022-12-18T02:29:50;-3.30;98.70
2913;DHT22;1466;48.778;9.166;2022-12-18T02:32:21;-3.40;98.70
2913;DHT22;1466;48.778;9.166;2022-12-18T02:34:49;-3.40;98.80
2913;DHT22;1466;48.778;9.166;2022-12-18T02:37:17;-3.40;98.80
2913;DHT22;1466;48.778;9.166;2022-12-18T02:39:46;-3.30;99.10
2913;DHT22;1466;48.778;9.166;2022-12-18T02:42:12;-3.30;98.90
2913;DHT22;1466;48.778;9.166;2022-12-18T02:44:46;-3.30;98.80
2913;DHT22;1466;48.778;9.166;2022-12-18T02:47:13;-3.30;98.70
2913;DHT22;1466;48.778;9.166;2022-12-18T02:57:46;-3.20;98.50
2913;DHT22;1466;48.778;9.166;2022-12-18T03:00:16;-3.20;98.60
2913;DHT22;1466;48.778;9.166;2022-12-18T03:02:50;-3.30;98.30
2913;DHT22;1466;48.778;9.166;2022-12-18T03:05:21;-3.30;98.50
2913;DHT22;1466;48.778;9.166;2022-12-18T03:07:57;-3.20;98.50
2913;DHT22;1466;48.778;9.166;2022-12-18T03:10:30;-3.20;98.30
2913;DHT22;1466;48.778;9.166;2022-12-18T03:13:02;-3.10;98.30
2913;DHT22;1466;48.778;9.166;2022-12-18T03:15:41;-3.20;98.10
2913;DHT22;1466;48.778;9.166;2022-12-18T03:18:23;-3.30;98.20
2913;DHT22;1466;48.778;9.166;2022-12-18T03:20:52;-3.20;98.30
2913;DHT22;1466;48.778;9.166;2022-12-18T03:23:21;-3.20;98.20
2913;DHT22;1466;48.778;9.166;2022-12-18T03:25:50;-3.10;98.20
2913;DHT22;1466;48.778;9.166;2022-12-18T03:28:20;-3.10;98.10
2913;DHT22;1466;48.778;9.166;2022-12-18T03:30:49;-3.10;98.10
2913;DHT22;1466;48.778;9.166;2022-12-18T03:33:29;-3.20;97.80
2913;DHT22;1466;48.778;9.166;2022-12-18T03:35:58;-3.30;97.80
2913;DHT22;1466;48.778;9.166;2022-12-18T03:38:23;-3.40;97.80
2913;DHT22;1466;48.778;9.166;2022-12-18T03:41:15;-3.50;97.90
2913;DHT22;1466;48.778;9.166;2022-12-18T03:44:09;-3.50;97.80
2913;DHT22;1466;48.778;9.166;2022-12-18T03:46:52;-3.60;97.70
2913;DHT22;1466;48.778;9.166;2022-12-18T03:49:35;-3.70;97.70
2913;DHT22;1466;48.778;9.166;2022-12-18T03:52:26;-3.70;97.80
2913;DHT22;1466;48.778;9.166;2022-12-18T03:54:55;-3.70;97.80
2913;DHT22;1466;48.778;9.166;2022-12-18T03:57:24;-3.70;97.70
2913;DHT22;1466;48.778;9.166;2022-12-18T03:59:58;-3.70;97.80
2913;DHT22;1466;48.778;9.166;2022-12-18T04:02:25;-3.60;97.50
2913;DHT22;1466;48.778;9.166;2022-12-18T04:04:57;-3.60;97.70
2913;DHT22;1466;48.778;9.166;2022-12-18T04:07:24;-3.60;97.50
2913;DHT22;1466;48.778;9.166;2022-12-18T04:09:53;-3.70;97.40
2913;DHT22;1466;48.778;9.166;2022-12-18T04:12:20;-3.70;97.30
2913;DHT22;1466;48.778;9.166;2022-12-18T04:14:45;-3.80;97.30
2913;DHT22;1466;48.778;9.166;2022-12-18T04:17:11;-3.80;97.40
2913;DHT22;1466;48.778;9.166;2022-12-18T04:19:36;-3.70;97.40
2913;DHT22;1466;48.778;9.166;2022-12-18T04:22:02;-3.80;97.30
2913;DHT22;1466;48.778;9.166;2022-12-18T04:24:28;-3.80;97.30
2913;DHT22;1466;48.778;9.166;2022-12-18T04:26:53;-3.80;97.30
2913;DHT22;1466;48.778;9.166;2022-12-18T04:29:19;-3.80;97.20
2913;DHT22;1466;48.778;9.166;2022-12-18T04:31:44;-3.70;97.20
2913;DHT22;1466;48.778;9.166;2022-12-18T04:34:10;-3.70;97.00
2913;DHT22;1466;48.778;9.166;2022-12-18T04:36:35;-3.70;96.80
2913;DHT22;1466;48.778;9.166;2022-12-18T04:39:01;-3.90;96.60
2913;DHT22;1466;48.778;9.166;2022-12-18T04:41:27;-4.10;96.50
2913;DHT22;1466;48.778;9.166;2022-12-18T04:43:52;-4.10;96.90
2913;DHT22;1466;48.778;9.166;2022-12-18T04:46:18;-4.10;97.00
2913;DHT22;1466;48.778;9.166;2022-12-18T04:48:45;-4.10;97.00
2913;DHT22;1466;48.778;9.166;2022-12-18T04:51:12;-4.10;96.90
2913;DHT22;1466;48.778;9.166;2022-12-18T04:53:38;-4.10;96.80
2913;DHT22;1466;48.778;9.166;2022-12-18T04:56:09;-4.20;96.80
2913;DHT22;1466;48.778;9.166;2022-12-18T04:58:36;-4.30;96.90
2913;DHT22;1466;48.778;9.166;2022-12-18T05:01:02;-4.30;96.80
2913;DHT22;1466;48.778;9.166;2022-12-18T05:03:28;-4.40;96.70
2913;DHT22;1466;48.778;9.166;2022-12-18T05:05:54;-4.30;96.80
2913;DHT22;1466;48.778;9.166;2022-12-18T05:08:19;-4.30;96.60
2913;DHT22;1466;48.778;9.166;2022-12-18T05:10:45;-4.30;96.60
2913;DHT22;1466;48.778;9.166;2022-12-18T05:13:14;-4.40;96.60
2913;DHT22;1466;48.778;9.166;2022-12-18T05:15:39;-4.40;96.70
2913;DHT22;1466;48.778;9.166;2022-12-18T05:18:05;-4.40;96.70
2913;DHT22;1466;48.778;9.166;2022-12-18T05:20:31;-4.30;96.80
2913;DHT22;1466;48.778;9.166;2022-12-18T05:22:57;-4.30;96.50
2913;DHT22;1466;48.778;9.166;2022-12-18T05:25:23;-4.30;96.80
2913;DHT22;1466;48.778;9.166;2022-12-18T05:27:48;-4.30;96.50
2913;DHT22;1466;48.778;9.166;2022-12-18T05:30:15;-4.30;96.40
2913;DHT22;1466;48.778;9.166;2022-12-18T05:32:41;-4.30;96.50
2913;DHT22;1466;48.778;9.166;2022-12-18T05:35:08;-4.30;96.40
2913;DHT22;1466;48.778;9.166;2022-12-18T05:37:34;-4.40;96.30
2913;DHT22;1466;48.778;9.166;2022-12-18T05:40:00;-4.40;96.40
2913;DHT22;1466;48.778;9.166;2022-12-18T05:42:26;-4.40;96.40
2913;DHT22;1466;48.778;9.166;2022-12-18T05:44:51;-4.40;96.40
2913;DHT22;1466;48.778;9.166;2022-12-18T05:47:17;-4.40;96.50
2913;DHT22;1466;48.778;9.166;2022-12-18T05:49:42;-4.40;96.30
2913;DHT22;1466;48.778;9.166;2022-12-18T05:52:08;-4.40;96.30
2913;DHT22;1466;48.778;9.166;2022-12-18T05:54:34;-4.40;96.40
2913;DHT22;1466;48.778;9.166;2022-12-18T05:57:00;-4.40;96.50
2913;DHT22;1466;48.778;9.166;2022-12-18T05:59:25;-4.40;96.30
2913;DHT22;1466;48.778;9.166;2022-12-18T06:01:51;-4.40;96.30
2913;DHT22;1466;48.778;9.166;2022-12-18T06:04:17;-4.50;96.30
2913;DHT22;1466;48.778;9.166;2022-12-18T06:06:42;-4.50;96.30
2913;DHT22;1466;48.778;9.166;2022-12-18T06:09:08;-4.50;96.30
2913;DHT22;1466;48.778;9.166;2022-12-18T06:11:36;-4.50;96.50
2913;DHT22;1466;48.778;9.166;2022-12-18T06:14:02;-4.60;96.10
2913;DHT22;1466;48.778;9.166;2022-12-18T06:16:29;-4.60;96.20
2913;DHT22;1466;48.778;9.166;2022-12-18T06:18:59;-4.60;96.40
2913;DHT22;1466;48.778;9.166;2022-12-18T06:21:25;-4.60;96.30
2913;DHT22;1466;48.778;9.166;2022-12-18T06:23:51;-4.60;96.40
2913;DHT22;1466;48.778;9.166;2022-12-18T06:26:16;-4.60;96.30
2913;DHT22;1466;48.778;9.166;2022-12-18T06:28:42;-4.60;96.20
2913;DHT22;1466;48.778;9.166;2022-12-18T06:31:09;-4.60;96.30
2913;DHT22;1466;48.778;9.166;2022-12-18T06:33:35;-4.60;96.30
2913;DHT22;1466;48.778;9.166;2022-12-18T06:36:11;-4.60;96.30
2913;DHT22;1466;48.778;9.166;2022-12-18T06:38:40;-4.60;96.30
2913;DHT22;1466;48.778;9.166;2022-12-18T06:41:11;-4.60;96.30
2913;DHT22;1466;48.778;9.166;2022-12-18T06:43:37;-4.70;96.20
2913;DHT22;1466;48.778;9.166;2022-12-18T06:46:03;-4.70;96.30
2913;DHT22;1466;48.778;9.166;2022-12-18T06:48:29;-4.70;96.10
2913;DHT22;1466;48.778;9.166;2022-12-18T06:50:55;-4.70;96.20
2913;DHT22;1466;48.778;9.166;2022-12-18T06:53:21;-4.80;96.10
2913;DHT22;1466;48.778;9.166;2022-12-18T06:55:46;-4.90;96.10
2913;DHT22;1466;48.778;9.166;2022-12-18T06:58:12;-4.90;96.20
2913;DHT22;1466;48.778;9.166;2022-12-18T07:00:38;-5.00;96.20
2913;DHT22;1466;48.778;9.166;2022-12-18T07:03:03;-5.00;96.20
2913;DHT22;1466;48.778;9.166;2022-12-18T07:05:29;-5.10;96.40
2913;DHT22;1466;48.778;9.166;2022-12-18T07:07:54;-5.00;96.20
2913;DHT22;1466;48.778;9.166;2022-12-18T07:10:20;-5.00;96.20
2913;DHT22;1466;48.778;9.166;2022-12-18T07:12:45;-5.00;96.30
2913;DHT22;1466;48.778;9.166;2022-12-18T07:15:11;-5.00;96.30
2913;DHT22;1466;48.778;9.166;2022-12-18T07:17:37;-4.90;96.40
2913;DHT22;1466;48.778;9.166;2022-12-18T07:20:02;-4.90;96.40
2913;DHT22;1466;48.778;9.166;2022-12-18T07:22:28;-4.90;96.50
2913;DHT22;1466;48.778;9.166;2022-12-18T07:24:53;-4.80;96.50
2913;DHT22;1466;48.778;9.166;2022-12-18T07:27:20;-4.70;96.50
2913;DHT22;1466;48.778;9.166;2022-12-18T07:29:46;-4.70;96.40
2913;DHT22;1466;48.778;9.166;2022-12-18T07:32:12;-4.70;96.40
2913;DHT22;1466;48.778;9.166;2022-12-18T07:34:37;-4.70;96.40
2913;DHT22;1466;48.778;9.166;2022-12-18T07:37:03;-4.70;96.20
2913;DHT22;1466;48.778;9.166;2022-12-18T07:39:28;-4.70;96.30
2913;DHT22;1466;48.778;9.166;2022-12-18T07:41:54;-4.70;96.40
2913;DHT22;1466;48.778;9.166;2022-12-18T07:44:38;-4.80;96.30
2913;DHT22;1466;48.778;9.166;2022-12-18T07:47:04;-4.90;96.40
2913;DHT22;1466;48.778;9.166;2022-12-18T07:49:30;-4.80;96.50
2913;DHT22;1466;48.778;9.166;2022-12-18T07:51:56;-4.80;96.50
2913;DHT22;1466;48.778;9.166;2022-12-18T07:54:23;-4.90;96.50
2913;DHT22;1466;48.778;9.166;2022-12-18T07:56:48;-4.80;96.60
2913;DHT22;1466;48.778;9.166;2022-12-18T07:59:14;-4.80;96.80
2913;DHT22;1466;48.778;9.166;2022-12-18T08:01:40;-4.70;96.80
2913;DHT22;1466;48.778;9.166;2022-12-18T08:04:05;-4.60;96.70
2913;DHT22;1466;48.778;9.166;2022-12-18T08:06:31;-4.60;96.60
2913;DHT22;1466;48.778;9.166;2022-12-18T08:08:57;-4.60;96.50
2913;DHT22;1466;48.778;9.166;2022-12-18T08:11:24;-4.50;96.60
2913;DHT22;1466;48.778;9.166;2022-12-18T08:13:50;-4.50;96.60
2913;DHT22;1466;48.778;9.166;2022-12-18T08:16:16;-4.40;96.60
2913;DHT22;1466;48.778;9.166;2022-12-18T08:18:42;-4.40;96.60
2913;DHT22;1466;48.778;9.166;2022-12-18T08:21:19;-4.40;96.60
2913;DHT22;1466;48.778;9.166;2022-12-18T08:23:46;-4.30;96.70
2913;DHT22;1466;48.778;9.166;2022-12-18T08:26:13;-4.20;96.70
2913;DHT22;1466;48.778;9.166;2022-12-18T08:28:40;-4.20;96.60
2913;DHT22;1466;48.778;9.166;2022-12-18T08:31:06;-4.20;96.50
2913;DHT22;1466;48.778;9.166;2022-12-18T08:33:33;-4.20;96.50
2913;DHT22;1466;48.778;9.166;2022-12-18T08:36:00;-4.20;96.40
2913;DHT22;1466;48.778;9.166;2022-12-18T08:38:25;-4.20;96.40
2913;DHT22;1466;48.778;9.166;2022-12-18T08:41:05;-4.20;96.50
2913;DHT22;1466;48.778;9.166;2022-12-18T08:43:30;-4.20;96.70
2913;DHT22;1466;48.778;9.166;2022-12-18T08:46:14;-4.20;96.70
2913;DHT22;1466;48.778;9.166;2022-12-18T08:48:40;-4.00;96.70
2913;DHT22;1466;48.778;9.166;2022-12-18T08:51:06;-4.00;96.60
2913;DHT22;1466;48.778;9.166;2022-12-18T08:53:32;-3.90;96.60
2913;DHT22;1466;48.778;9.166;2022-12-18T08:55:57;-3.90;96.60
2913;DHT22;1466;48.778;9.166;2022-12-18T08:58:23;-3.80;96.70
2913;DHT22;1466;48.778;9.166;2022-12-18T09:00:49;-3.80;96.70
2913;DHT22;1466;48.778;9.166;2022-12-18T09:03:16;-3.70;96.60
2913;DHT22;1466;48.778;9.166;2022-12-18T09:05:43;-3.70;96.60
2913;DHT22;1466;48.778;9.166;2022-12-18T09:08:08;-3.70;96.70
2913;DHT22;1466;48.778;9.166;2022-12-18T09:10:41;-3.60;96.80
2913;DHT22;1466;48.778;9.166;2022-12-18T09:13:07;-3.60;96.70
2913;DHT22;1466;48.778;9.166;2022-12-18T09:15:33;-3.60;96.70
2913;DHT22;1466;48.778;9.166;2022-12-18T09:17:58;-3.50;96.90
2913;DHT22;1466;48.778;9.166;2022-12-18T09:20:24;-3.40;96.80
2913;DHT22;1466;48.778;9.166;2022-12-18T09:22:49;-3.40;96.70
2913;DHT22;1466;48.778;9.166;2022-12-18T09:25:15;-3.40;96.70
2913;DHT22;1466;48.778;9.166;2022-12-18T09:27:41;-3.40;96.60
2913;DHT22;1466;48.778;9.166;2022-12-18T09:30:07;-3.40;96.60
2913;DHT22;1466;48.778;9.166;2022-12-18T09:32:32;-3.40;96.60
2913;DHT22;1466;48.778;9.166;2022-12-18T09:34:58;-3.30;96.60
2913;DHT22;1466;48.778;9.166;2022-12-18T09:37:24;-3.30;96.60
2913;DHT22;1466;48.778;9.166;2022-12-18T09:39:49;-3.30;96.60
2913;DHT22;1466;48.778;9.166;2022-12-18T09:42:20;-3.30;96.70
2913;DHT22;1466;48.778;9.166;2022-12-18T09:44:50;-3.20;96.80
2913;DHT22;1466;48.778;9.166;2022-12-18T09:47:20;-3.10;96.80
2913;DHT22;1466;48.778;9.166;2022-12-18T09:49:55;-3.00;96.80
2913;DHT22;1466;48.778;9.166;2022-12-18T09:52:33;-3.00;96.80
2913;DHT22;1466;48.778;9.166;2022-12-18T09:57:35;-2.90;97.00
2913;DHT22;1466;48.778;9.166;2022-12-18T10:00:11;-2.90;97.10
2913;DHT22;1466;48.778;9.166;2022-12-18T10:02:40;-2.80;97.20
2913;DHT22;1466;48.778;9.166;2022-12-18T10:05:16;-2.80;97.20
2913;DHT22;1466;48.778;9.166;2022-12-18T10:10:47;-2.60;97.40
2913;DHT22;1466;48.778;9.166;2022-12-18T10:16:12;-2.30;97.50
2913;DHT22;1466;48.778;9.166;2022-12-18T10:19:03;-2.20;97.60
2913;DHT22;1466;48.778;9.166;2022-12-18T10:21:46;-2.00;97.80
2913;DHT22;1466;48.778;9.166;2022-12-18T10:26:52;-1.60;97.50
2913;DHT22;1466;48.778;9.166;2022-12-18T10:29:18;-1.50;97.50
2913;DHT22;1466;48.778;9.166;2022-12-18T10:31:44;-1.30;97.50
2913;DHT22;1466;48.778;9.166;2022-12-18T10:34:11;-1.20;97.60
2913;DHT22;1466;48.778;9.166;2022-12-18T10:36:37;-1.10;97.60
2913;DHT22;1466;48.778;9.166;2022-12-18T10:39:16;-0.90;97.60
2913;DHT22;1466;48.778;9.166;2022-12-18T10:41:41;-0.80;97.60
2913;DHT22;1466;48.778;9.166;2022-12-18T10:44:20;-0.70;97.60
2913;DHT22;1466;48.778;9.166;2022-12-18T10:46:49;-0.50;97.50
2913;DHT22;1466;48.778;9.166;2022-12-18T10:49:33;-0.40;97.50
2913;DHT22;1466;48.778;9.166;2022-12-18T10:52:19;-0.30;97.30
2913;DHT22;1466;48.778;9.166;2022-12-18T10:54:50;-0.20;97.40
2913;DHT22;1466;48.778;9.166;2022-12-18T10:57:17;-0.20;97.10
2913;DHT22;1466;48.778;9.166;2022-12-18T10:59:53;-0.20;97.00
2913;DHT22;1466;48.778;9.166;2022-12-18T11:02:36;-0.20;97.10
2913;DHT22;1466;48.778;9.166;2022-12-18T11:05:08;-0.10;97.10
2913;DHT22;1466;48.778;9.166;2022-12-18T11:07:50;-0.10;97.10
2913;DHT22;1466;48.778;9.166;2022-12-18T11:10:18;-0.10;97.10
2913;DHT22;1466;48.778;9.166;2022-12-18T11:12:44;-0.10;97.10
2913;DHT22;1466;48.778;9.166;2022-12-18T11:15:23;-0.10;97.00
2913;DHT22;1466;48.778;9.166;2022-12-18T11:17:52;-0.10;97.10
2913;DHT22;1466;48.778;9.166;2022-12-18T11:20:49;-0.10;97.30
2913;DHT22;1466;48.778;9.166;2022-12-18T11:23:15;0.10;97.60
2913;DHT22;1466;48.778;9.166;2022-12-18T11:26:00;0.30;97.40
2913;DHT22;1466;48.778;9.166;2022-12-18T11:31:26;0.50;97.30
2913;DHT22;1466;48.778;9.166;2022-12-18T11:34:41;0.70;97.30
2913;DHT22;1466;48.778;9.166;2022-12-18T11:36:44;0.90;97.00
2913;DHT22;1466;48.778;9.166;2022-12-18T11:39:19;0.80;96.50
2913;DHT22;1466;48.778;9.166;2022-12-18T11:42:08;0.70;96.60
2913;DHT22;1466;48.778;9.166;2022-12-18T11:44:55;0.70;96.50
2913;DHT22;1466;48.778;9.166;2022-12-18T11:47:51;0.60;96.70
2913;DHT22;1466;48.778;9.166;2022-12-18T11:50:24;0.50;96.80
2913;DHT22;1466;48.778;9.166;2022-12-18T11:52:50;0.50;96.90
2913;DHT22;1466;48.778;9.166;2022-12-18T11:55:39;0.50;97.00
2913;DHT22;1466;48.778;9.166;2022-12-18T11:58:46;0.50;97.00
2913;DHT22;1466;48.778;9.166;2022-12-18T12:22:56;0.40;97.10
2913;DHT22;1466;48.778;9.166;2022-12-18T12:25:46;0.40;97.20
2913;DHT22;1466;48.778;9.166;2022-12-18T12:28:39;0.50;97.20
2913;DHT22;1466;48.778;9.166;2022-12-18T12:39:48;0.40;97.30
2913;DHT22;1466;48.778;9.166;2022-12-18T12:45:21;0.50;97.50
2913;DHT22;1466;48.778;9.166;2022-12-18T12:47:49;0.50;97.30
2913;DHT22;1466;48.778;9.166;2022-12-18T12:50:19;0.50;97.30
2913;DHT22;1466;48.778;9.166;2022-12-18T12:52:53;0.50;97.40
2913;DHT22;1466;48.778;9.166;2022-12-18T12:55:28;0.60;97.40
2913;DHT22;1466;48.778;9.166;2022-12-18T13:00:28;0.70;97.40
2913;DHT22;1466;48.778;9.166;2022-12-18T13:03:46;0.80;97.30
2913;DHT22;1466;48.778;9.166;2022-12-18T13:06:03;0.80;97.20
2913;DHT22;1466;48.778;9.166;2022-12-18T13:08:31;0.80;97.10
2913;DHT22;1466;48.778;9.166;2022-12-18T13:10:58;0.80;97.20
2913;DHT22;1466;48.778;9.166;2022-12-18T13:13:55;0.80;97.40
2913;DHT22;1466;48.778;9.166;2022-12-18T13:16:23;0.90;97.00
2913;DHT22;1466;48.778;9.166;2022-12-18T13:18:50;0.80;96.90
2913;DHT22;1466;48.778;9.166;2022-12-18T13:21:30;0.80;97.00
2913;DHT22;1466;48.778;9.166;2022-12-18T13:24:25;0.80;97.20
2913;DHT22;1466;48.778;9.166;2022-12-18T13:26:51;0.80;97.20
2913;DHT22;1466;48.778;9.166;2022-12-18T13:29:42;0.80;97.20
2913;DHT22;1466;48.778;9.166;2022-12-18T13:32:20;0.80;97.20
2913;DHT22;1466;48.778;9.166;2022-12-18T13:34:46;0.80;97.30
2913;DHT22;1466;48.778;9.166;2022-12-18T13:39:56;0.90;97.20
2913;DHT22;1466;48.778;9.166;2022-12-18T13:42:36;0.90;97.20
2913;DHT22;1466;48.778;9.166;2022-12-18T13:45:41;1.00;97.30
2913;DHT22;1466;48.778;9.166;2022-12-18T13:48:19;0.90;97.10
2913;DHT22;1466;48.778;9.166;2022-12-18T13:50:53;1.00;97.30
2913;DHT22;1466;48.778;9.166;2022-12-18T13:53:24;1.00;97.20
2913;DHT22;1466;48.778;9.166;2022-12-18T13:55:51;1.00;97.20
2913;DHT22;1466;48.778;9.166;2022-12-18T13:58:17;1.10;97.20
2913;DHT22;1466;48.778;9.166;2022-12-18T14:00:43;1.10;97.30
2913;DHT22;1466;48.778;9.166;2022-12-18T14:03:21;1.10;97.20
2913;DHT22;1466;48.778;9.166;2022-12-18T14:05:59;1.10;97.10
2913;DHT22;1466;48.778;9.166;2022-12-18T14:08:28;1.10;97.30
2913;DHT22;1466;48.778;9.166;2022-12-18T14:10:56;1.10;97.20
2913;DHT22;1466;48.778;9.166;2022-12-18T14:13:28;1.10;97.30
2913;DHT22;1466;48.778;9.166;2022-12-18T14:15:55;1.10;97.30
2913;DHT22;1466;48.778;9.166;2022-12-18T14:18:25;1.00;97.20
2913;DHT22;1466;48.778;9.166;2022-12-18T14:20:56;0.90;97.50
2913;DHT22;1466;48.778;9.166;2022-12-18T14:23:26;0.90;97.40
2913;DHT22;1466;48.778;9.166;2022-12-18T14:25:52;0.90;97.50
2913;DHT22;1466;48.778;9.166;2022-12-18T14:28:18;0.90;97.60
2913;DHT22;1466;48.778;9.166;2022-12-18T14:30:45;0.90;97.60
2913;DHT22;1466;48.778;9.166;2022-12-18T14:33:16;0.90;97.60
2913;DHT22;1466;48.778;9.166;2022-12-18T14:38:26;0.90;97.60
2913;DHT22;1466;48.778;9.166;2022-12-18T14:40:57;0.90;97.80
2913;DHT22;1466;48.778;9.166;2022-12-18T14:43:23;0.90;97.90
2913;DHT22;1466;48.778;9.166;2022-12-18T14:45:49;0.80;97.80
2913;DHT22;1466;48.778;9.166;2022-12-18T14:48:21;0.80;97.80
2913;DHT22;1466;48.778;9.166;2022-12-18T14:51:00;0.80;97.90
2913;DHT22;1466;48.778;9.166;2022-12-18T14:53:33;0.80;98.00
2913;DHT22;1466;48.778;9.166;2022-12-18T14:56:00;0.70;97.90
2913;DHT22;1466;48.778;9.166;2022-12-18T14:58:26;0.70;97.90
2913;DHT22;1466;48.778;9.166;2022-12-18T15:00:52;0.60;98.00
2913;DHT22;1466;48.778;9.166;2022-12-18T15:03:20;0.60;98.00
2913;DHT22;1466;48.778;9.166;2022-12-18T15:05:46;0.60;98.10
2913;DHT22;1466;48.778;9.166;2022-12-18T15:08:29;0.60;98.10
2913;DHT22;1466;48.778;9.166;2022-12-18T15:10:54;0.60;98.20
2913;DHT22;1466;48.778;9.166;2022-12-18T15:13:23;0.60;98.20
2913;DHT22;1466;48.778;9.166;2022-12-18T15:15:50;0.50;98.20
2913;DHT22;1466;48.778;9.166;2022-12-18T15:18:19;0.50;98.20
2913;DHT22;1466;48.778;9.166;2022-12-18T15:20:57;0.50;98.30
2913;DHT22;1466;48.778;9.166;2022-12-18T15:23:49;0.50;98.30
2913;DHT22;1466;48.778;9.166;2022-12-18T15:26:16;0.40;98.20
2913;DHT22;1466;48.778;9.166;2022-12-18T15:36:19;0.30;98.30
2913;DHT22;1466;48.778;9.166;2022-12-18T15:38:49;0.30;98.50
2913;DHT22;1466;48.778;9.166;2022-12-18T15:41:16;0.30;98.50
2913;DHT22;1466;48.778;9.166;2022-12-18T15:43:42;0.30;98.50
2913;DHT22;1466;48.778;9.166;2022-12-18T15:46:16;0.30;98.50
2913;DHT22;1466;48.778;9.166;2022-12-18T15:48:45;0.30;98.50
2913;DHT22;1466;48.778;9.166;2022-12-18T15:51:37;0.30;98.50
2913;DHT22;1466;48.778;9.166;2022-12-18T15:54:05;0.20;98.50
2913;DHT22;1466;48.778;9.166;2022-12-18T15:56:34;0.20;98.50
2913;DHT22;1466;48.778;9.166;2022-12-18T15:59:38;0.30;98.70
2913;DHT22;1466;48.778;9.166;2022-12-18T16:02:16;0.20;98.60
2913;DHT22;1466;48.778;9.166;2022-12-18T16:04:42;0.30;98.60
2913;DHT22;1466;48.778;9.166;2022-12-18T16:07:08;0.20;98.60
2913;DHT22;1466;48.778;9.166;2022-12-18T16:09:35;0.20;98.70
2913;DHT22;1466;48.778;9.166;2022-12-18T16:12:00;0.20;98.70
2913;DHT22;1466;48.778;9.166;2022-12-18T16:14:28;0.20;98.70
2913;DHT22;1466;48.778;9.166;2022-12-18T16:16:57;0.30;98.90
2913;DHT22;1466;48.778;9.166;2022-12-18T16:19:23;0.30;98.70
2913;DHT22;1466;48.778;9.166;2022-12-18T16:21:51;0.30;98.80
2913;DHT22;1466;48.778;9.166;2022-12-18T16:24:19;0.20;98.70
2913;DHT22;1466;48.778;9.166;2022-12-18T16:26:47;0.20;98.70
2913;DHT22;1466;48.778;9.166;2022-12-18T16:29:13;0.20;98.70
2913;DHT22;1466;48.778;9.166;2022-12-18T16:31:39;0.20;98.70
2913;DHT22;1466;48.778;9.166;2022-12-18T16:34:21;0.20;98.90
2913;DHT22;1466;48.778;9.166;2022-12-18T16:36:50;0.30;99.00
2913;DHT22;1466;48.778;9.166;2022-12-18T16:39:16;0.30;99.00
2913;DHT22;1466;48.778;9.166;2022-12-18T16:41:42;0.30;98.80
2913;DHT22;1466;48.778;9.166;2022-12-18T16:44:08;0.30;98.80
2913;DHT22;1466;48.778;9.166;2022-12-18T16:46:34;0.30;98.80
2913;DHT22;1466;48.778;9.166;2022-12-18T16:49:00;0.30;98.90
2913;DHT22;1466;48.778;9.166;2022-12-18T16:51:29;0.30;98.80
2913;DHT22;1466;48.778;9.166;2022-12-18T16:53:55;0.20;98.70
2913;DHT22;1466;48.778;9.166;2022-12-18T16:56:20;0.20;98.80
2913;DHT22;1466;48.778;9.166;2022-12-18T16:58:54;0.10;98.80
2913;DHT22;1466;48.778;9.166;2022-12-18T17:01:21;0.10;98.80
2913;DHT22;1466;48.778;9.166;2022-12-18T17:04:01;0.10;98.90
2913;DHT22;1466;48.778;9.166;2022-12-18T17:06:28;0.10;98.90
2913;DHT22;1466;48.778;9.166;2022-12-18T17:08:58;0.10;98.90
2913;DHT22;1466;48.778;9.166;2022-12-18T17:11:26;0.10;98.90
2913;DHT22;1466;48.778;9.166;2022-12-18T17:13:52;0.00;98.90
2913;DHT22;1466;48.778;9.166;2022-12-18T17:16:18;0.00;98.90
2913;DHT22;1466;48.778;9.166;2022-12-18T17:18:44;0.00;99.00
2913;DHT22;1466;48.778;9.166;2022-12-18T17:21:10;0.10;99.10
2913;DHT22;1466;48.778;9.166;2022-12-18T17:23:37;0.10;99.10
2913;DHT22;1466;48.778;9.166;2022-12-18T17:26:03;0.10;99.00
2913;DHT22;1466;48.778;9.166;2022-12-18T17:28:31;0.10;99.20
2913;DHT22;1466;48.778;9.166;2022-12-18T17:30:57;0.20;99.10
2913;DHT22;1466;48.778;9.166;2022-12-18T17:33:24;0.20;99.00
2913;DHT22;1466;48.778;9.166;2022-12-18T17:35:49;0.20;99.00
2913;DHT22;1466;48.778;9.166;2022-12-18T17:38:15;0.30;99.00
2913;DHT22;1466;48.778;9.166;2022-12-18T17:40:41;0.30;99.00
2913;DHT22;1466;48.778;9.166;2022-12-18T17:43:08;0.30;98.90